首页
METAR-TAF:

METAR-TAF

机场 :

聖安東尼奧國際機場

圣安东尼奥, 得克萨斯州, 美国

纬度: 29-31-58N, 经度: 098-27-49W, 海拔: 246米

当前天气观测

该预报发布于41分钟前的15:51 UTC
风速3节,风向多变
温度 31°C
湿度 59%
气压 1016 hPa
能見度: 16.1公里
少量云层高于3000英尺
多云层高于25000英尺

METAR: KSAT 211551Z VRB03KT 10SM FEW030 BKN250 31/22 A3001 RMK AO2 SLP144 T03060217 $

时间: 11:32 (16:32 UTC)

预报

该预报发布于1小时和28分钟前的15:04 UTC
预报有效从21日的 15点(UTC)到 22日的 18点(UTC)
风速5节,风向
能見度: 10公里
散云层高于2500英尺
散云层高于25000英尺
从 21日的 1800点(UTC)
风速5节,风向东南
能見度: 10公里
散云层高于4000英尺
从 21日的 2000点(UTC)
风速7节,风向东转东南
能見度: 10公里
散云层高于5000英尺
附近有阵雨
短暂存在
从 21日的 22点(UTC)到 22日的 02点(UTC)
风速15节,风向多变,有时为25节阵风
能見度: 8.0公里
多云层高于3000英尺, 积雨云.
雷暴, 小雨
从 22日的 0400点(UTC)
风速4节,风向东南
能見度: 10公里
多云层高于10000英尺

TAF: KSAT 211504Z 2115/2218 19005KT P6SM SCT025 SCT250 FM211800 13005KT P6SM SCT040 FM212000 12007KT P6SM VCSH SCT050 TEMPO 2122/2202 VRB15G25KT 5SM -TSRA BKN030CB FM220400 13004KT P6SM BKN100

超过4000个机场的气象观测和天气预报(METAR&TAF报告)。

可查询的气象台以黄色和红色小点在地图上表示。

将鼠标移到小点上方,可查看气象台名称。

然后点击查看天气观测和预报。

如需切换地图:点击带黑十字的绿色按钮放大地图;点击带横线的绿色按钮缩小地图;或者点击绿色箭头查看邻近地区的地图。


METAR-TAF: